This is the latest recevied weather packets stored in our database for station/object KM4KBD. If no packets are shown the sender has not sent any weather packets the latest 10 day(s).
| Time | Temp. | Humidity | Pressure | Rain* | Wind** | Luminosity | Snow |
|---|---|---|---|---|---|---|---|
| 1777934083 | 25° C | 45% | 1015.3 hPa | 0 mm | - | 156 W/m² | - |
| 1777933779 | 25° C | 43% | 1015 hPa | 0 mm | - | 188 W/m² | - |
| 1777933477 | 25° C | 44% | 1015.1 hPa | 0 mm | - | 203 W/m² | - |
| 1777933174 | 25° C | 43% | 1015.1 hPa | 0 mm | - | 213 W/m² | - |
| 1777932871 | 25° C | 45% | 1015.2 hPa | 0 mm | - | 206 W/m² | - |
| 1777932568 | 25° C | 43% | 1015.2 hPa | 0 mm | - | 219 W/m² | - |
| 1777932265 | 25° C | 46% | 1015.5 hPa | 0 mm | - | 133 W/m² | - |
| 1777931962 | 25° C | 44% | 1015.2 hPa | 0 mm | - | 170 W/m² | - |
| 1777931659 | 25° C | 44% | 1015.1 hPa | 0 mm | - | 252 W/m² | - |
| 1777931355 | 25° C | 46% | 1015.4 hPa | 0 mm | - | 237 W/m² | - |
| 1777931052 | 25° C | 46% | 1015.4 hPa | 0 mm | - | 258 W/m² | - |
| 1777930748 | 25° C | 45% | 1015.4 hPa | 0 mm | - | 287 W/m² | - |
| 1777930444 | 25° C | 45% | 1015.2 hPa | 0 mm | - | 335 W/m² | - |
| 1777930142 | 25° C | 45% | 1015.4 hPa | 0 mm | - | 341 W/m² | - |
| 1777929837 | 25° C | 45% | 1015.4 hPa | 0 mm | - | 333 W/m² | - |
| 1777929535 | 25° C | 45% | 1015.3 hPa | 0 mm | - | 331 W/m² | - |
| 1777929231 | 25° C | 46% | 1015.4 hPa | 0 mm | - | 355 W/m² | - |
| 1777928929 | 25° C | 43% | 1015.3 hPa | 0 mm | - | 400 W/m² | - |
| 1777928626 | 25° C | 45% | 1015.5 hPa | 0 mm | - | 413 W/m² | - |
| 1777928323 | 25° C | 44% | 1015.7 hPa | 0 mm | - | 428 W/m² | - |
| 1777928021 | 25° C | 43% | 1015.8 hPa | 0 mm | - | 442 W/m² | - |
| 1777927718 | 25° C | 46% | 1015.4 hPa | 0 mm | - | 458 W/m² | - |
| 1777927417 | 25° C | 46% | 1015.9 hPa | 0 mm | - | 443 W/m² | - |
| 1777927116 | 25° C | 47% | 1015.6 hPa | 0 mm | - | 483 W/m² | - |
| 1777926812 | 25° C | 45% | 1015.8 hPa | 0 mm | - | 515 W/m² | - |
* Rain latest hour (hover to see other rain measurements)
** Current wind speed in m/s (hover to see current wind gust speed)